Time;durP1;ratioP1;P1;durP2;ratioP2;P2;SDS_P1;SDS_P2;PMS_P1;PMS_P2;Temp;Humidity;BMP_temperature;BMP_pressure;BME280_temperature;BME280_humidity;BME280_pressure;Samples;Min_cycle;Max_cycle;Signal;HPM_P1;HPM_P2
2021/06/18 00:00:00;;;;;;;24.73;22.08;;;;;;;;;;4993199;28;20186;-68
2021/06/18 00:02:26;;;;;;;26.20;21.27;;;;;;;;;;5003405;28;20183;-68
2021/06/18 00:04:51;;;;;;;25.30;22.45;;;;;;;;;;4999761;28;20202;-68
2021/06/18 00:07:17;;;;;;;25.63;22.88;;;;;;;;;;4998508;28;20555;-69
2021/06/18 00:09:42;;;;;;;28.98;23.52;;;;;;;;;;5004795;28;20534;-69
2021/06/18 00:12:08;;;;;;;27.83;22.55;;;;;;;;;;4993441;28;20694;-69
2021/06/18 00:14:34;;;;;;;28.17;24.48;;;;;;;;;;5010000;28;20553;-66
2021/06/18 00:16:59;;;;;;;28.58;24.90;;;;;;;;;;4995274;28;20188;-67
2021/06/18 00:19:25;;;;;;;33.03;27.25;;;;;;;;;;5001604;28;20218;-67
2021/06/18 00:21:50;;;;;;;31.58;26.92;;;;;;;;;;4994460;28;20579;-68
2021/06/18 00:24:15;;;;;;;31.95;27.92;;;;;;;;;;5007038;28;20281;-67
2021/06/18 00:26:41;;;;;;;33.10;26.40;;;;;;;;;;5000161;28;20960;-68
2021/06/18 00:29:06;;;;;;;29.38;26.27;;;;;;;;;;5003362;28;20192;-68
2021/06/18 00:31:32;;;;;;;29.73;26.52;;;;;;;;;;4995788;28;20201;-67
2021/06/18 00:33:57;;;;;;;34.25;26.80;;;;;;;;;;5003100;28;20265;-68
2021/06/18 00:36:23;;;;;;;31.27;27.88;;;;;;;;;;4999338;28;20273;-68
2021/06/18 00:38:48;;;;;;;32.78;27.83;;;;;;;;;;5003742;28;20215;-67
2021/06/18 00:41:14;;;;;;;32.85;27.88;;;;;;;;;;5006985;28;20203;-67
2021/06/18 00:43:39;;;;;;;32.72;29.30;;;;;;;;;;4998468;28;20538;-67
2021/06/18 00:46:04;;;;;;;32.63;27.88;;;;;;;;;;5003864;28;20666;-67
2021/06/18 00:48:30;;;;;;;33.53;28.67;;;;;;;;;;5001501;28;20235;-67
2021/06/18 00:50:56;;;;;;;33.55;27.85;;;;;;;;;;5006397;28;20324;-68
2021/06/18 00:53:21;;;;;;;32.58;27.67;;;;;;;;;;5000593;28;20714;-68
2021/06/18 00:55:48;;;;;;;35.53;29.77;;;;;;;;;;5010056;28;20183;-68
2021/06/18 00:58:13;;;;;;;32.75;28.15;;;;;;;;;;4998861;28;20221;-68
2021/06/18 01:00:39;;;;;;;35.15;29.45;;;;;;;;;;4999805;28;20211;-67
2021/06/18 01:03:05;;;;;;;35.88;31.98;;;;;;;;;;5013333;28;20184;-67
2021/06/18 01:05:30;;;;;;;34.22;30.50;;;;;;;;;;5006198;28;20213;-68
2021/06/18 01:08:23;;;;;;;37.70;30.60;;;;;;;;;;4997049;28;20601;-68
2021/06/18 01:11:07;;;;;;;36.97;32.92;;;;;;;;;;5003933;28;20617;-68
2021/06/18 01:13:38;;;;;;;40.70;33.50;;;;;;;;;;5003908;28;20275;-68
2021/06/18 01:16:16;;;;;;;37.45;32.33;;;;;;;;;;5005773;28;20328;-68
2021/06/18 01:18:59;;;;;;;38.47;33.25;;;;;;;;;;5001793;28;20587;-68
2021/06/18 01:21:31;;;;;;;38.50;33.33;;;;;;;;;;5020618;28;20542;-69
2021/06/18 01:23:59;;;;;;;37.10;33.15;;;;;;;;;;5002332;28;20190;-69
2021/06/18 01:26:31;;;;;;;38.08;33.38;;;;;;;;;;5008069;28;20217;-69
2021/06/18 01:28:58;;;;;;;37.90;32.95;;;;;;;;;;4998681;28;20217;-69
2021/06/18 01:31:27;;;;;;;40.88;34.75;;;;;;;;;;5003375;28;20183;-68
2021/06/18 01:33:58;;;;;;;45.03;35.13;;;;;;;;;;5004518;28;20582;-68
2021/06/18 01:36:25;;;;;;;38.13;32.90;;;;;;;;;;4996014;28;20187;-69
2021/06/18 01:38:53;;;;;;;41.38;35.10;;;;;;;;;;5007667;28;20203;-69
2021/06/18 01:41:22;;;;;;;39.15;35.13;;;;;;;;;;4995349;28;20209;-69
2021/06/18 01:43:50;;;;;;;43.30;35.80;;;;;;;;;;5006827;28;20198;-69
2021/06/18 01:46:18;;;;;;;40.05;35.50;;;;;;;;;;4997382;28;20308;-70
2021/06/18 01:48:48;;;;;;;41.90;34.20;;;;;;;;;;5001288;28;20226;-69
2021/06/18 01:51:14;;;;;;;37.67;32.83;;;;;;;;;;4994211;28;20211;-69
2021/06/18 01:53:43;;;;;;;38.05;34.08;;;;;;;;;;5014463;28;20201;-68
2021/06/18 01:56:19;;;;;;;37.80;33.70;;;;;;;;;;4995359;28;20186;-69
2021/06/18 01:58:48;;;;;;;39.03;34.72;;;;;;;;;;5008630;28;20206;-68
2021/06/18 02:01:15;;;;;;;37.67;33.65;;;;;;;;;;4994263;28;20227;-69
2021/06/18 02:03:43;;;;;;;38.88;34.67;;;;;;;;;;5007817;28;20257;-68
2021/06/18 02:06:10;;;;;;;38.70;33.88;;;;;;;;;;4993048;28;20201;-68
2021/06/18 02:08:36;;;;;;;39.97;33.72;;;;;;;;;;5006928;28;20185;-69
2021/06/18 02:11:03;;;;;;;37.40;33.22;;;;;;;;;;4995010;28;20594;-68
2021/06/18 02:13:30;;;;;;;40.63;34.88;;;;;;;;;;5005477;28;20547;-68
2021/06/18 02:15:57;;;;;;;43.88;34.95;;;;;;;;;;5004911;28;20233;-68
2021/06/18 02:18:26;;;;;;;37.20;33.17;;;;;;;;;;5003304;28;20574;-68
2021/06/18 02:20:55;;;;;;;36.60;31.75;;;;;;;;;;5004811;28;20194;-69
2021/06/18 02:23:22;;;;;;;39.33;33.40;;;;;;;;;;5012787;28;20213;-69
2021/06/18 02:25:49;;;;;;;39.17;34.25;;;;;;;;;;5002614;28;20197;-69
2021/06/18 02:28:15;;;;;;;40.67;34.95;;;;;;;;;;4999845;28;20186;-69
2021/06/18 02:30:41;;;;;;;40.38;34.47;;;;;;;;;;5008461;28;20269;-69
2021/06/18 02:33:11;;;;;;;43.17;35.53;;;;;;;;;;4992986;28;20269;-69
2021/06/18 02:35:38;;;;;;;42.88;36.22;;;;;;;;;;5005034;28;20190;-69
2021/06/18 02:38:03;;;;;;;39.58;34.85;;;;;;;;;;4997822;28;20199;-69
2021/06/18 02:40:29;;;;;;;43.03;36.65;;;;;;;;;;5004813;28;20197;-69
2021/06/18 02:42:54;;;;;;;42.40;37.88;;;;;;;;;;4992368;28;20206;-68
2021/06/18 02:45:19;;;;;;;42.90;38.17;;;;;;;;;;5002962;28;20195;-68
2021/06/18 02:47:59;;;;;;;45.80;38.70;;;;;;;;;;4998704;28;20225;-68
2021/06/18 02:50:48;;;;;;;42.75;38.10;;;;;;;;;;5001588;28;20202;-68
2021/06/18 02:53:26;;;;;;;41.22;36.90;;;;;;;;;;5003797;28;20183;-68
2021/06/18 02:56:07;;;;;;;46.63;39.55;;;;;;;;;;5002625;28;20190;-68
2021/06/18 02:58:39;;;;;;;44.45;39.63;;;;;;;;;;5000480;28;20229;-68
2021/06/18 03:01:06;;;;;;;45.03;40.15;;;;;;;;;;5003233;28;20210;-68
2021/06/18 03:03:41;;;;;;;43.72;37.25;;;;;;;;;;4998987;28;20191;-68
2021/06/18 03:06:07;;;;;;;43.10;38.42;;;;;;;;;;4995987;28;20281;-68
2021/06/18 03:08:45;;;;;;;41.70;36.58;;;;;;;;;;4999254;28;20259;-68
2021/06/18 03:11:11;;;;;;;45.08;38.00;;;;;;;;;;4994023;28;20228;-68
2021/06/18 03:13:41;;;;;;;41.88;37.35;;;;;;;;;;5015286;28;20179;-68
2021/06/18 03:16:10;;;;;;;45.38;39.55;;;;;;;;;;4995472;28;20191;-68
2021/06/18 03:18:38;;;;;;;47.15;40.58;;;;;;;;;;5007466;28;20286;-68
2021/06/18 03:21:04;;;;;;;45.47;40.58;;;;;;;;;;4996920;28;20635;-68
2021/06/18 03:23:32;;;;;;;44.33;39.22;;;;;;;;;;5006575;28;20187;-68
2021/06/18 03:25:59;;;;;;;45.65;39.95;;;;;;;;;;4994243;28;20190;-68
2021/06/18 03:28:27;;;;;;;49.35;41.92;;;;;;;;;;5002672;28;20179;-68
2021/06/18 03:30:53;;;;;;;47.28;41.00;;;;;;;;;;4993480;28;20190;-68
2021/06/18 03:33:21;;;;;;;48.42;42.10;;;;;;;;;;5001918;28;20706;-68
2021/06/18 03:35:48;;;;;;;47.22;41.28;;;;;;;;;;4996460;28;20251;-68
2021/06/18 03:38:15;;;;;;;49.30;42.58;;;;;;;;;;5002767;28;20308;-68
2021/06/18 03:40:41;;;;;;;48.35;42.00;;;;;;;;;;4995154;28;20833;-68
2021/06/18 03:43:08;;;;;;;50.95;41.22;;;;;;;;;;4997659;28;20190;-68
2021/06/18 03:45:39;;;;;;;47.30;42.20;;;;;;;;;;5003723;28;20186;-68
2021/06/18 03:48:05;;;;;;;50.70;42.58;;;;;;;;;;4997433;28;20222;-67
2021/06/18 03:50:33;;;;;;;48.95;42.72;;;;;;;;;;5005474;28;20293;-68
2021/06/18 03:53:00;;;;;;;51.70;43.13;;;;;;;;;;4986770;28;20195;-68
2021/06/18 03:55:26;;;;;;;50.53;42.85;;;;;;;;;;5001095;28;20597;-68
2021/06/18 03:57:52;;;;;;;49.67;42.33;;;;;;;;;;5002563;28;20244;-68
2021/06/18 04:00:19;;;;;;;53.30;43.67;;;;;;;;;;5006634;28;20217;-68
2021/06/18 04:02:45;;;;;;;48.35;43.22;;;;;;;;;;4994496;28;20206;-68
2021/06/18 04:05:15;;;;;;;49.80;42.13;;;;;;;;;;5001251;28;20226;-68
2021/06/18 04:07:46;;;;;;;51.75;42.60;;;;;;;;;;5006171;28;20317;-68
2021/06/18 04:10:12;;;;;;;48.03;42.65;;;;;;;;;;5007902;28;20526;-68
2021/06/18 04:12:39;;;;;;;48.80;41.40;;;;;;;;;;5005812;28;20189;-68
2021/06/18 04:15:05;;;;;;;51.22;42.80;;;;;;;;;;5008658;28;20194;-68
2021/06/18 04:17:31;;;;;;;48.72;43.28;;;;;;;;;;4999884;28;20182;-67
2021/06/18 04:19:57;;;;;;;49.50;43.25;;;;;;;;;;5002981;28;20200;-68
2021/06/18 04:22:31;;;;;;;51.53;43.40;;;;;;;;;;5012128;28;20658;-68
2021/06/18 04:24:57;;;;;;;51.33;44.00;;;;;;;;;;5004988;28;20947;-68
2021/06/18 04:27:22;;;;;;;50.25;43.42;;;;;;;;;;5006297;28;20182;-68
2021/06/18 04:29:48;;;;;;;50.05;43.33;;;;;;;;;;5003640;28;20594;-68
2021/06/18 04:32:14;;;;;;;50.08;44.67;;;;;;;;;;5000103;28;20179;-68
2021/06/18 04:34:39;;;;;;;48.25;43.08;;;;;;;;;;4998448;28;20669;-68
2021/06/18 04:37:06;;;;;;;50.42;45.00;;;;;;;;;;5002363;28;20532;-68
2021/06/18 04:39:31;;;;;;;52.17;45.05;;;;;;;;;;4996644;28;20614;-67
2021/06/18 04:41:58;;;;;;;51.20;45.60;;;;;;;;;;5012101;28;20202;-68
2021/06/18 04:44:23;;;;;;;52.00;44.20;;;;;;;;;;4997924;28;20195;-68
2021/06/18 04:46:49;;;;;;;48.97;43.78;;;;;;;;;;5000039;28;20674;-68
2021/06/18 04:49:14;;;;;;;50.97;43.38;;;;;;;;;;4991754;28;20234;-68
2021/06/18 04:51:40;;;;;;;48.83;43.08;;;;;;;;;;5002368;28;20197;-68
2021/06/18 04:54:06;;;;;;;48.72;43.20;;;;;;;;;;4995271;28;20249;-67
2021/06/18 04:56:31;;;;;;;50.28;43.85;;;;;;;;;;5006239;28;20273;-68
2021/06/18 04:58:58;;;;;;;49.45;44.03;;;;;;;;;;5001795;28;20290;-69
2021/06/18 05:01:24;;;;;;;46.30;40.35;;;;;;;;;;4996853;28;20265;-68
2021/06/18 05:03:49;;;;;;;48.72;43.42;;;;;;;;;;5006315;28;20226;-68
2021/06/18 05:06:14;;;;;;;55.15;44.00;;;;;;;;;;4999568;28;20191;-68
2021/06/18 05:08:40;;;;;;;52.25;44.50;;;;;;;;;;5001394;28;20229;-68
2021/06/18 05:11:05;;;;;;;53.25;44.58;;;;;;;;;;5000164;28;20236;-68
2021/06/18 05:13:30;;;;;;;51.10;44.45;;;;;;;;;;5000129;28;20198;-67
2021/06/18 05:15:56;;;;;;;51.67;46.13;;;;;;;;;;4999209;28;20208;-68
2021/06/18 05:18:21;;;;;;;54.38;48.38;;;;;;;;;;5008826;28;20203;-66
2021/06/18 05:20:47;;;;;;;52.53;46.78;;;;;;;;;;4998815;28;20277;-67
2021/06/18 05:23:12;;;;;;;56.50;47.55;;;;;;;;;;5006349;28;20182;-67
2021/06/18 05:25:37;;;;;;;54.53;47.90;;;;;;;;;;4998857;28;20198;-68
2021/06/18 05:28:04;;;;;;;53.15;47.17;;;;;;;;;;5002762;28;20269;-69
2021/06/18 05:30:29;;;;;;;52.45;45.15;;;;;;;;;;5002357;28;20653;-70
2021/06/18 05:32:54;;;;;;;50.08;44.53;;;;;;;;;;4999142;28;20193;-69
2021/06/18 05:35:20;;;;;;;52.33;44.35;;;;;;;;;;5005585;28;20258;-70
2021/06/18 05:37:46;;;;;;;54.63;45.05;;;;;;;;;;5002546;28;21504;-68
2021/06/18 05:40:12;;;;;;;57.15;47.33;;;;;;;;;;5002051;28;20686;-69
2021/06/18 05:42:37;;;;;;;56.42;47.42;;;;;;;;;;4998021;28;20183;-68
2021/06/18 05:45:04;;;;;;;55.30;48.30;;;;;;;;;;5005185;28;20202;-71
2021/06/18 05:47:29;;;;;;;53.25;46.08;;;;;;;;;;4998377;28;20284;-70
2021/06/18 05:49:55;;;;;;;51.95;46.08;;;;;;;;;;5006494;28;20686;-70
2021/06/18 05:52:20;;;;;;;52.92;46.45;;;;;;;;;;4302673;28;10000818;-69
2021/06/18 05:54:46;;;;;;;52.03;45.45;;;;;;;;;;4996783;28;20532;-69
2021/06/18 05:57:11;;;;;;;52.30;45.80;;;;;;;;;;5013216;28;20572;-69
2021/06/18 05:59:36;;;;;;;58.88;46.42;;;;;;;;;;4997694;28;20206;-69
2021/06/18 06:02:02;;;;;;;57.80;48.22;;;;;;;;;;4995301;28;20860;-69
2021/06/18 06:04:27;;;;;;;56.53;49.63;;;;;;;;;;4987720;28;20294;-67
2021/06/18 06:06:52;;;;;;;55.15;48.75;;;;;;;;;;4999961;28;20174;-70
2021/06/18 06:09:18;;;;;;;54.88;48.67;;;;;;;;;;4987800;28;20297;-68
2021/06/18 06:11:43;;;;;;;56.70;50.10;;;;;;;;;;4998562;28;20528;-67
2021/06/18 06:14:16;;;;;;;54.45;48.72;;;;;;;;;;4994494;28;20665;-68
2021/06/18 06:16:41;;;;;;;52.83;47.35;;;;;;;;;;5001518;28;20178;-67
2021/06/18 06:19:06;;;;;;;58.85;50.30;;;;;;;;;;4993016;28;20227;-67
2021/06/18 06:21:32;;;;;;;55.58;48.40;;;;;;;;;;5001787;28;20261;-68
2021/06/18 06:23:57;;;;;;;56.25;48.50;;;;;;;;;;4992578;28;20281;-70
2021/06/18 06:26:23;;;;;;;57.92;48.83;;;;;;;;;;5008309;28;20514;-70
2021/06/18 06:28:48;;;;;;;58.22;50.33;;;;;;;;;;4999132;28;23319;-66
2021/06/18 06:31:14;;;;;;;57.40;51.10;;;;;;;;;;5002310;28;20660;-66
2021/06/18 06:33:39;;;;;;;58.65;51.45;;;;;;;;;;5006599;28;20194;-66
2021/06/18 06:36:05;;;;;;;57.75;51.45;;;;;;;;;;5000642;28;20190;-66
2021/06/18 06:38:30;;;;;;;56.83;50.50;;;;;;;;;;5007578;28;20236;-66
2021/06/18 06:40:56;;;;;;;61.90;52.95;;;;;;;;;;4996168;28;20238;-67
2021/06/18 06:43:21;;;;;;;59.03;51.90;;;;;;;;;;4999780;28;20702;-67
2021/06/18 06:45:48;;;;;;;62.33;52.40;;;;;;;;;;5002399;28;20200;-66
2021/06/18 06:48:13;;;;;;;62.22;53.13;;;;;;;;;;5004865;28;20253;-66
2021/06/18 06:50:39;;;;;;;62.35;53.42;;;;;;;;;;4996455;28;20651;-67
2021/06/18 06:53:06;;;;;;;60.05;53.13;;;;;;;;;;5006027;28;20647;-67
2021/06/18 06:55:32;;;;;;;63.33;53.40;;;;;;;;;;4995526;28;20202;-67
2021/06/18 06:57:57;;;;;;;64.78;54.92;;;;;;;;;;5006106;28;20215;-66
2021/06/18 07:00:22;;;;;;;64.55;53.97;;;;;;;;;;4999919;28;20202;-66
2021/06/18 07:02:48;;;;;;;63.80;54.08;;;;;;;;;;4998330;28;20669;-66
2021/06/18 07:05:13;;;;;;;67.72;54.53;;;;;;;;;;5003349;28;20702;-66
2021/06/18 07:07:39;;;;;;;63.72;54.85;;;;;;;;;;4993657;28;20221;-66
2021/06/18 07:10:06;;;;;;;67.28;51.72;;;;;;;;;;5006905;28;20247;-66
2021/06/18 07:12:32;;;;;;;56.42;49.53;;;;;;;;;;4997985;28;20245;-66
2021/06/18 07:14:58;;;;;;;62.10;50.33;;;;;;;;;;5000021;28;20187;-66
2021/06/18 07:17:24;;;;;;;62.03;51.30;;;;;;;;;;4998949;28;20289;-66
2021/06/18 07:19:50;;;;;;;64.53;51.10;;;;;;;;;;5002405;28;20301;-67
2021/06/18 07:22:19;;;;;;;59.05;49.80;;;;;;;;;;4994858;28;20195;-66
2021/06/18 07:24:44;;;;;;;59.78;49.10;;;;;;;;;;5002255;28;20229;-66
2021/06/18 07:27:10;;;;;;;56.22;47.38;;;;;;;;;;4992860;28;20664;-66
2021/06/18 07:29:35;;;;;;;53.95;45.67;;;;;;;;;;5001271;28;20194;-68
2021/06/18 07:32:00;;;;;;;50.50;43.88;;;;;;;;;;5005803;28;20178;-66
2021/06/18 07:34:26;;;;;;;56.58;44.45;;;;;;;;;;4996057;28;20217;-66
2021/06/18 07:36:51;;;;;;;47.92;42.75;;;;;;;;;;5003991;28;20705;-66
2021/06/18 07:39:17;;;;;;;48.08;41.90;;;;;;;;;;4990459;28;20214;-66
2021/06/18 07:41:42;;;;;;;55.05;42.25;;;;;;;;;;5004296;28;20653;-66
2021/06/18 07:44:08;;;;;;;49.38;41.28;;;;;;;;;;4994490;28;20202;-67
2021/06/18 07:46:33;;;;;;;46.33;41.45;;;;;;;;;;5005694;28;20281;-66
2021/06/18 07:48:58;;;;;;;50.50;40.17;;;;;;;;;;4993494;28;20211;-66
2021/06/18 07:51:24;;;;;;;44.67;39.83;;;;;;;;;;4999897;28;20195;-67
2021/06/18 07:53:49;;;;;;;45.67;40.67;;;;;;;;;;4997485;28;20235;-67
2021/06/18 07:56:22;;;;;;;43.63;38.92;;;;;;;;;;5003738;28;20178;-66
2021/06/18 07:58:48;;;;;;;44.20;39.45;;;;;;;;;;4991371;28;24077;-67
2021/06/18 08:01:14;;;;;;;43.42;38.67;;;;;;;;;;5008499;28;20773;-66
2021/06/18 08:03:39;;;;;;;48.30;37.85;;;;;;;;;;5002145;28;20508;-67
2021/06/18 08:06:05;;;;;;;44.35;35.42;;;;;;;;;;4994964;28;20567;-66
2021/06/18 08:08:30;;;;;;;40.75;36.40;;;;;;;;;;5004964;28;20179;-67
2021/06/18 08:10:55;;;;;;;44.80;37.20;;;;;;;;;;4991954;28;20219;-66
2021/06/18 08:13:21;;;;;;;38.15;34.15;;;;;;;;;;5003549;28;20673;-67
2021/06/18 08:15:46;;;;;;;39.95;33.90;;;;;;;;;;4995095;28;20205;-68
2021/06/18 08:18:11;;;;;;;41.20;32.75;;;;;;;;;;5001674;28;20301;-69
2021/06/18 08:20:37;;;;;;;37.35;32.55;;;;;;;;;;4996161;28;20286;-67
2021/06/18 08:23:02;;;;;;;45.10;35.70;;;;;;;;;;5005585;28;20278;-69
2021/06/18 08:25:28;;;;;;;36.75;32.75;;;;;;;;;;4992849;28;20194;-68
2021/06/18 08:27:53;;;;;;;36.80;31.42;;;;;;;;;;5006462;28;20249;-68
2021/06/18 08:30:19;;;;;;;39.63;33.55;;;;;;;;;;4995147;28;20209;-68
2021/06/18 08:32:45;;;;;;;37.03;32.30;;;;;;;;;;4998539;28;20552;-67
2021/06/18 08:35:10;;;;;;;34.95;31.15;;;;;;;;;;5003893;28;20281;-68
2021/06/18 08:37:36;;;;;;;34.33;28.67;;;;;;;;;;4992368;28;20278;-68
2021/06/18 08:40:03;;;;;;;33.40;28.80;;;;;;;;;;5002653;28;20231;-68
2021/06/18 08:42:29;;;;;;;36.47;32.78;;;;;;;;;;4995461;28;20187;-68
2021/06/18 08:44:55;;;;;;;36.08;31.55;;;;;;;;;;5005074;28;20261;-67
2021/06/18 08:47:20;;;;;;;36.30;32.20;;;;;;;;;;4994775;28;20310;-67
2021/06/18 08:49:46;;;;;;;36.65;31.77;;;;;;;;;;5003465;28;20197;-67
2021/06/18 08:52:11;;;;;;;30.13;27.05;;;;;;;;;;4997426;28;20191;-67
2021/06/18 08:54:41;;;;;;;27.23;24.30;;;;;;;;;;5005488;28;20186;-71
2021/06/18 08:57:16;;;;;;;28.48;25.27;;;;;;;;;;4993884;28;20183;-67
2021/06/18 08:59:42;;;;;;;28.08;24.02;;;;;;;;;;5005830;28;20201;-67
2021/06/18 09:02:09;;;;;;;28.02;24.95;;;;;;;;;;4997198;28;20245;-68
2021/06/18 09:05:15;;;;;;;32.72;25.77;;;;;;;;;;5001873;28;20616;-67
2021/06/18 09:07:46;;;;;;;27.08;22.85;;;;;;;;;;4996261;28;20202;-68
2021/06/18 09:10:28;;;;;;;27.25;24.30;;;;;;;;;;5001757;28;20183;-68
2021/06/18 09:13:13;;;;;;;29.58;24.20;;;;;;;;;;5000818;28;20179;-67
2021/06/18 09:15:41;;;;;;;28.65;24.88;;;;;;;;;;5006207;28;20250;-67
2021/06/18 09:18:30;;;;;;;28.77;25.10;;;;;;;;;;4995089;28;20695;-69
2021/06/18 09:21:13;;;;;;;32.45;25.45;;;;;;;;;;5005458;28;20277;-68
2021/06/18 09:23:43;;;;;;;29.77;23.40;;;;;;;;;;4994634;28;20197;-69
2021/06/18 09:26:24;;;;;;;28.73;23.23;;;;;;;;;;4997370;28;20634;-69
2021/06/18 09:29:01;;;;;;;28.48;23.80;;;;;;;;;;4991410;28;20573;-68
2021/06/18 09:31:48;;;;;;;30.92;24.33;;;;;;;;;;5002403;28;20613;-68
2021/06/18 09:34:27;;;;;;;27.80;22.52;;;;;;;;;;4996627;28;20240;-68
2021/06/18 09:37:22;;;;;;;22.88;20.42;;;;;;;;;;5002356;28;20190;-68
2021/06/18 09:40:09;;;;;;;20.48;18.27;;;;;;;;;;4998690;28;20218;-68
2021/06/18 09:42:46;;;;;;;23.13;19.65;;;;;;;;;;5005268;28;20672;-68
2021/06/18 09:45:13;;;;;;;20.65;17.75;;;;;;;;;;4997211;28;20182;-68
2021/06/18 09:47:39;;;;;;;20.27;18.08;;;;;;;;;;5008797;28;20269;-68
2021/06/18 09:50:26;;;;;;;24.25;20.05;;;;;;;;;;4996775;28;20183;-68
2021/06/18 09:53:11;;;;;;;23.40;20.63;;;;;;;;;;5007689;28;20728;-67
2021/06/18 09:55:37;;;;;;;26.77;21.48;;;;;;;;;;4993979;28;20190;-68
2021/06/18 09:58:03;;;;;;;27.77;22.45;;;;;;;;;;5002669;28;20187;-69
2021/06/18 10:00:28;;;;;;;27.88;22.25;;;;;;;;;;4999852;28;20214;-68
2021/06/18 10:02:55;;;;;;;27.13;20.77;;;;;;;;;;5005347;28;20545;-68
2021/06/18 10:05:26;;;;;;;21.50;19.17;;;;;;;;;;4997699;28;20304;-68
2021/06/18 10:07:53;;;;;;;25.00;22.17;;;;;;;;;;5003101;28;20197;-68
2021/06/18 10:10:28;;;;;;;26.90;23.92;;;;;;;;;;4997002;28;20185;-68
2021/06/18 10:12:54;;;;;;;26.65;23.95;;;;;;;;;;5003606;28;20330;-68
2021/06/18 10:15:21;;;;;;;28.73;25.73;;;;;;;;;;5001723;28;20217;-68
2021/06/18 10:17:49;;;;;;;27.10;23.40;;;;;;;;;;4996674;28;20334;-68
2021/06/18 10:20:32;;;;;;;25.13;22.27;;;;;;;;;;5006630;28;20241;-68
2021/06/18 10:23:06;;;;;;;26.52;21.52;;;;;;;;;;4996327;28;20288;-68
2021/06/18 10:25:36;;;;;;;24.02;20.45;;;;;;;;;;4999481;28;20657;-68
2021/06/18 10:28:11;;;;;;;24.00;19.92;;;;;;;;;;4994819;28;20213;-68
2021/06/18 10:30:49;;;;;;;24.40;20.00;;;;;;;;;;4996438;28;20204;-68
2021/06/18 10:33:27;;;;;;;20.55;18.35;;;;;;;;;;4994349;28;20186;-68
2021/06/18 10:36:15;;;;;;;22.02;17.88;;;;;;;;;;4999217;28;20187;-68
2021/06/18 10:38:45;;;;;;;20.90;18.70;;;;;;;;;;4994586;28;20495;-68
2021/06/18 10:41:16;;;;;;;20.33;18.10;;;;;;;;;;5002716;28;20213;-68
2021/06/18 10:43:45;;;;;;;21.17;18.80;;;;;;;;;;4995851;28;20639;-68
2021/06/18 10:46:13;;;;;;;23.58;19.40;;;;;;;;;;5002592;28;20183;-68
2021/06/18 10:48:50;;;;;;;21.85;17.98;;;;;;;;;;4998325;28;20222;-66
2021/06/18 10:51:25;;;;;;;20.05;17.92;;;;;;;;;;5001234;28;20221;-67
2021/06/18 10:53:54;;;;;;;21.98;17.38;;;;;;;;;;4998503;28;20190;-67
2021/06/18 10:56:46;;;;;;;18.80;16.83;;;;;;;;;;5005420;28;20182;-70
2021/06/18 10:59:17;;;;;;;19.17;17.15;;;;;;;;;;4996042;28;20213;-67
2021/06/18 11:01:43;;;;;;;21.77;18.40;;;;;;;;;;5003520;28;20746;-66
2021/06/18 11:04:08;;;;;;;18.13;16.27;;;;;;;;;;4997462;28;20277;-66
2021/06/18 11:06:39;;;;;;;21.05;17.23;;;;;;;;;;5004224;28;20738;-67
2021/06/18 11:09:05;;;;;;;17.30;15.48;;;;;;;;;;4995857;28;20187;-66
2021/06/18 11:11:30;;;;;;;19.58;16.35;;;;;;;;;;4999561;28;20724;-71
2021/06/18 11:14:00;;;;;;;20.85;15.60;;;;;;;;;;5012015;28;20186;-70
2021/06/18 11:16:52;;;;;;;20.05;15.52;;;;;;;;;;5000399;28;20305;-68
2021/06/18 11:19:24;;;;;;;20.27;18.05;;;;;;;;;;4993154;28;20317;-68
2021/06/18 11:21:50;;;;;;;18.15;15.80;;;;;;;;;;5002662;28;20622;-68
2021/06/18 11:24:32;;;;;;;19.25;17.23;;;;;;;;;;4995616;28;20218;-67
2021/06/18 11:27:22;;;;;;;20.00;14.60;;;;;;;;;;5003990;28;20192;-69
2021/06/18 11:29:47;;;;;;;21.10;15.95;;;;;;;;;;4996659;28;20214;-69
2021/06/18 11:32:45;;;;;;;17.88;14.70;;;;;;;;;;5002896;28;20218;-71
2021/06/18 11:35:32;;;;;;;19.98;15.07;;;;;;;;;;4997268;28;20202;-67
2021/06/18 11:38:15;;;;;;;19.83;16.35;;;;;;;;;;5001801;28;20662;-68
2021/06/18 11:40:40;;;;;;;21.33;15.73;;;;;;;;;;4990781;28;20201;-68
2021/06/18 11:43:06;;;;;;;21.35;12.68;;;;;;;;;;5003926;28;20186;-67
2021/06/18 11:45:42;;;;;;;16.73;12.38;;;;;;;;;;4992797;28;20277;-67
2021/06/18 11:48:15;;;;;;;19.23;14.88;;;;;;;;;;5001022;28;20689;-68
2021/06/18 11:50:42;;;;;;;13.80;11.63;;;;;;;;;;4987455;28;20281;-69
2021/06/18 11:53:08;;;;;;;17.05;13.38;;;;;;;;;;5002419;28;20252;-70
2021/06/18 11:55:34;;;;;;;17.80;13.85;;;;;;;;;;4995341;28;20187;-69
2021/06/18 11:57:59;;;;;;;16.08;12.68;;;;;;;;;;4999866;28;20187;-68
2021/06/18 12:00:36;;;;;;;15.25;13.02;;;;;;;;;;5003014;28;20202;-67
2021/06/18 12:03:04;;;;;;;18.45;14.13;;;;;;;;;;4994000;28;20235;-68
2021/06/18 12:05:34;;;;;;;14.85;13.35;;;;;;;;;;5004189;28;20273;-70
2021/06/18 12:08:09;;;;;;;15.25;12.00;;;;;;;;;;4996613;28;20650;-70
2021/06/18 12:10:35;;;;;;;16.90;14.90;;;;;;;;;;5001714;28;20236;-70
2021/06/18 12:13:00;;;;;;;19.63;14.52;;;;;;;;;;4992788;28;20203;-70
2021/06/18 12:15:29;;;;;;;18.60;13.80;;;;;;;;;;5022821;28;20186;-70
2021/06/18 12:18:01;;;;;;;18.23;14.15;;;;;;;;;;4998172;28;20197;-68
2021/06/18 12:20:33;;;;;;;17.20;13.52;;;;;;;;;;5009938;28;20183;-68
2021/06/18 12:22:59;;;;;;;19.50;17.35;;;;;;;;;;5001191;28;20181;-67
2021/06/18 12:25:26;;;;;;;16.88;14.80;;;;;;;;;;5008340;28;20186;-69
2021/06/18 12:27:57;;;;;;;20.67;14.98;;;;;;;;;;4999018;28;20190;-67
2021/06/18 12:30:23;;;;;;;15.30;13.27;;;;;;;;;;5006831;28;20189;-68
2021/06/18 12:32:50;;;;;;;16.30;12.57;;;;;;;;;;4995693;28;20199;-68
2021/06/18 12:35:18;;;;;;;19.50;13.45;;;;;;;;;;5003924;28;20654;-67
2021/06/18 12:37:52;;;;;;;15.63;13.55;;;;;;;;;;4999462;28;20268;-68
2021/06/18 12:40:27;;;;;;;18.10;15.00;;;;;;;;;;5002548;28;20205;-68
2021/06/18 12:42:55;;;;;;;19.83;12.43;;;;;;;;;;5007398;28;20181;-73
2021/06/18 12:45:25;;;;;;;16.85;12.25;;;;;;;;;;5000959;28;21519;-73
2021/06/18 12:48:14;;;;;;;16.77;12.73;;;;;;;;;;5002058;28;20226;-71
2021/06/18 12:50:43;;;;;;;15.48;11.95;;;;;;;;;;5009512;28;20186;-74
2021/06/18 12:53:13;;;;;;;18.35;12.35;;;;;;;;;;5010056;28;20556;-69
2021/06/18 12:55:44;;;;;;;12.68;11.18;;;;;;;;;;4989569;28;20729;-68
2021/06/18 12:58:24;;;;;;;19.58;11.54;;;;;;;;;;4644597;28;10003597;-70
2021/06/18 13:00:57;;;;;;;14.98;11.82;;;;;;;;;;4981508;28;20222;-69
2021/06/18 13:03:37;;;;;;;13.82;11.20;;;;;;;;;;4992910;28;20629;-69
2021/06/18 13:06:06;;;;;;;14.65;11.13;;;;;;;;;;4985213;28;20739;-73
2021/06/18 13:08:34;;;;;;;17.30;13.30;;;;;;;;;;4995231;28;20273;-70
2021/06/18 13:10:59;;;;;;;14.77;12.90;;;;;;;;;;4990197;28;20744;-69
2021/06/18 13:13:30;;;;;;;16.45;12.32;;;;;;;;;;5000259;28;20186;-68
2021/06/18 13:16:14;;;;;;;14.95;12.75;;;;;;;;;;4993780;28;20243;-69
2021/06/18 13:18:53;;;;;;;18.95;12.65;;;;;;;;;;5002354;28;20216;-69
2021/06/18 13:21:19;;;;;;;15.15;13.25;;;;;;;;;;4995602;28;20208;-68
2021/06/18 13:23:45;;;;;;;15.63;13.82;;;;;;;;;;5005268;28;20242;-68
2021/06/18 13:26:12;;;;;;;13.13;10.60;;;;;;;;;;4995825;28;20632;-74
2021/06/18 13:28:43;;;;;;;13.25;10.88;;;;;;;;;;5007920;28;20212;-72
2021/06/18 13:31:12;;;;;;;13.63;12.25;;;;;;;;;;4995575;28;20245;-74
2021/06/18 13:33:39;;;;;;;18.67;14.80;;;;;;;;;;5002910;28;20638;-69
2021/06/18 13:36:05;;;;;;;16.17;13.40;;;;;;;;;;4993600;28;23392;-68
2021/06/18 13:38:31;;;;;;;18.33;13.88;;;;;;;;;;4996649;28;20269;-70
2021/06/18 13:40:59;;;;;;;13.50;11.98;;;;;;;;;;4996885;28;20771;-71
2021/06/18 13:43:24;;;;;;;12.63;11.25;;;;;;;;;;5005282;28;20626;-69
2021/06/18 13:45:49;;;;;;;15.32;11.70;;;;;;;;;;4997246;28;20190;-70
2021/06/18 13:48:15;;;;;;;13.88;10.57;;;;;;;;;;4991354;28;20225;-73
2021/06/18 13:50:46;;;;;;;13.85;10.13;;;;;;;;;;5003132;28;20205;-73
2021/06/18 13:53:12;;;;;;;14.82;11.30;;;;;;;;;;4993407;28;20292;-74
2021/06/18 13:55:37;;;;;;;12.10;9.95;;;;;;;;;;5003949;28;20277;-70
2021/06/18 13:58:03;;;;;;;14.40;11.77;;;;;;;;;;4990361;28;20223;-74
2021/06/18 14:00:28;;;;;;;13.60;11.68;;;;;;;;;;4996231;28;20518;-70
2021/06/18 14:02:55;;;;;;;13.05;11.50;;;;;;;;;;4990800;28;20249;-70
2021/06/18 14:05:21;;;;;;;16.48;12.13;;;;;;;;;;4997406;28;20546;-72
2021/06/18 14:07:47;;;;;;;17.08;11.90;;;;;;;;;;4988851;28;20197;-69
2021/06/18 14:10:13;;;;;;;15.02;10.75;;;;;;;;;;4992448;28;20183;-70
2021/06/18 14:12:41;;;;;;;15.40;10.02;;;;;;;;;;4995063;28;20201;-69
2021/06/18 14:15:09;;;;;;;11.75;8.85;;;;;;;;;;5001908;28;20248;-69
2021/06/18 14:17:36;;;;;;;10.70;7.38;;;;;;;;;;5000289;28;20638;-70
2021/06/18 14:20:04;;;;;;;13.18;7.05;;;;;;;;;;4995788;28;20210;-70
2021/06/18 14:22:29;;;;;;;12.40;6.32;;;;;;;;;;5003698;28;20178;-70
2021/06/18 14:24:54;;;;;;;13.98;7.28;;;;;;;;;;4993436;28;20335;-70